sensor_id;sensor_type;location;lat;lon;timestamp;P1;durP1;ratioP1;P2;durP2;ratioP2
24681;SDS011;12802;53.390;-2.328;2023-01-31T00:01:06;7.32;;;2.22;;
24681;SDS011;12802;53.390;-2.328;2023-01-31T00:03:34;7.15;;;2.25;;
24681;SDS011;12802;53.390;-2.328;2023-01-31T00:08:48;5.68;;;2.25;;
24681;SDS011;12802;53.390;-2.328;2023-01-31T00:11:16;7.30;;;2.13;;
24681;SDS011;12802;53.390;-2.328;2023-01-31T00:13:43;11.38;;;2.30;;
24681;SDS011;12802;53.390;-2.328;2023-01-31T00:16:10;9.70;;;3.28;;
24681;SDS011;12802;53.390;-2.328;2023-01-31T00:18:37;4.13;;;2.15;;
24681;SDS011;12802;53.390;-2.328;2023-01-31T00:21:05;15.27;;;2.20;;
24681;SDS011;12802;53.390;-2.328;2023-01-31T00:23:32;8.75;;;2.05;;
24681;SDS011;12802;53.390;-2.328;2023-01-31T00:26:08;10.82;;;3.10;;
24681;SDS011;12802;53.390;-2.328;2023-01-31T00:28:35;4.90;;;2.28;;
24681;SDS011;12802;53.390;-2.328;2023-01-31T00:31:01;8.43;;;2.03;;
24681;SDS011;12802;53.390;-2.328;2023-01-31T00:33:27;9.68;;;2.40;;
24681;SDS011;12802;53.390;-2.328;2023-01-31T00:35:52;8.70;;;2.10;;
24681;SDS011;12802;53.390;-2.328;2023-01-31T00:38:18;8.85;;;2.03;;
24681;SDS011;12802;53.390;-2.328;2023-01-31T00:40:53;8.32;;;1.92;;
24681;SDS011;12802;53.390;-2.328;2023-01-31T00:43:19;12.95;;;2.05;;
24681;SDS011;12802;53.390;-2.328;2023-01-31T00:45:45;6.97;;;2.15;;
24681;SDS011;12802;53.390;-2.328;2023-01-31T00:48:11;7.03;;;2.20;;
24681;SDS011;12802;53.390;-2.328;2023-01-31T00:50:36;12.13;;;1.80;;
24681;SDS011;12802;53.390;-2.328;2023-01-31T00:53:02;4.95;;;1.90;;
24681;SDS011;12802;53.390;-2.328;2023-01-31T00:55:31;5.03;;;1.80;;
24681;SDS011;12802;53.390;-2.328;2023-01-31T00:57:57;7.57;;;2.40;;
24681;SDS011;12802;53.390;-2.328;2023-01-31T01:00:24;6.15;;;2.13;;
24681;SDS011;12802;53.390;-2.328;2023-01-31T01:02:50;6.13;;;2.30;;
24681;SDS011;12802;53.390;-2.328;2023-01-31T01:05:16;4.55;;;1.83;;
24681;SDS011;12802;53.390;-2.328;2023-01-31T01:07:42;6.93;;;2.35;;
24681;SDS011;12802;53.390;-2.328;2023-01-31T01:10:08;7.88;;;1.58;;
24681;SDS011;12802;53.390;-2.328;2023-01-31T01:12:34;12.52;;;2.22;;
24681;SDS011;12802;53.390;-2.328;2023-01-31T01:15:00;5.68;;;1.60;;
24681;SDS011;12802;53.390;-2.328;2023-01-31T01:17:26;4.70;;;1.65;;
24681;SDS011;12802;53.390;-2.328;2023-01-31T01:19:52;8.48;;;1.67;;
24681;SDS011;12802;53.390;-2.328;2023-01-31T01:22:18;3.08;;;1.83;;
24681;SDS011;12802;53.390;-2.328;2023-01-31T01:24:44;6.30;;;0.90;;
24681;SDS011;12802;53.390;-2.328;2023-01-31T01:27:10;5.95;;;1.80;;
24681;SDS011;12802;53.390;-2.328;2023-01-31T01:29:37;6.30;;;1.75;;
24681;SDS011;12802;53.390;-2.328;2023-01-31T01:32:03;5.50;;;1.77;;
24681;SDS011;12802;53.390;-2.328;2023-01-31T01:34:30;2.80;;;0.75;;
24681;SDS011;12802;53.390;-2.328;2023-01-31T01:36:57;4.13;;;1.13;;
24681;SDS011;12802;53.390;-2.328;2023-01-31T01:39:22;6.22;;;1.50;;
24681;SDS011;12802;53.390;-2.328;2023-01-31T01:41:48;6.32;;;1.30;;
24681;SDS011;12802;53.390;-2.328;2023-01-31T01:52:53;4.53;;;1.65;;
24681;SDS011;12802;53.390;-2.328;2023-01-31T01:55:29;8.70;;;1.15;;
24681;SDS011;12802;53.390;-2.328;2023-01-31T02:00:41;5.43;;;1.50;;
24681;SDS011;12802;53.390;-2.328;2023-01-31T02:03:09;4.72;;;1.00;;
24681;SDS011;12802;53.390;-2.328;2023-01-31T02:05:43;9.20;;;1.20;;
24681;SDS011;12802;53.390;-2.328;2023-01-31T02:08:21;3.95;;;1.02;;
24681;SDS011;12802;53.390;-2.328;2023-01-31T02:13:23;3.42;;;0.95;;
24681;SDS011;12802;53.390;-2.328;2023-01-31T02:15:49;3.38;;;1.13;;
24681;SDS011;12802;53.390;-2.328;2023-01-31T02:18:15;1.98;;;1.02;;
24681;SDS011;12802;53.390;-2.328;2023-01-31T02:29:12;6.65;;;1.45;;
24681;SDS011;12802;53.390;-2.328;2023-01-31T02:39:49;7.80;;;1.65;;
24681;SDS011;12802;53.390;-2.328;2023-01-31T02:45:03;2.95;;;1.33;;
24681;SDS011;12802;53.390;-2.328;2023-01-31T02:47:59;6.75;;;1.75;;
24681;SDS011;12802;53.390;-2.328;2023-01-31T02:53:33;5.28;;;1.20;;
24681;SDS011;12802;53.390;-2.328;2023-01-31T02:56:13;8.30;;;1.52;;
24681;SDS011;12802;53.390;-2.328;2023-01-31T02:58:46;10.45;;;1.67;;
24681;SDS011;12802;53.390;-2.328;2023-01-31T03:01:14;3.70;;;1.08;;
24681;SDS011;12802;53.390;-2.328;2023-01-31T03:03:45;5.50;;;1.88;;
24681;SDS011;12802;53.390;-2.328;2023-01-31T03:11:24;6.68;;;1.52;;
24681;SDS011;12802;53.390;-2.328;2023-01-31T03:14:32;2.83;;;1.33;;
24681;SDS011;12802;53.390;-2.328;2023-01-31T03:17:24;6.78;;;1.40;;
24681;SDS011;12802;53.390;-2.328;2023-01-31T03:20:05;5.10;;;1.20;;
24681;SDS011;12802;53.390;-2.328;2023-01-31T03:22:39;5.60;;;1.65;;
24681;SDS011;12802;53.390;-2.328;2023-01-31T03:25:08;5.70;;;1.58;;
24681;SDS011;12802;53.390;-2.328;2023-01-31T03:30:09;3.38;;;1.15;;
24681;SDS011;12802;53.390;-2.328;2023-01-31T03:32:43;3.65;;;1.42;;
24681;SDS011;12802;53.390;-2.328;2023-01-31T03:35:16;7.72;;;1.90;;
24681;SDS011;12802;53.390;-2.328;2023-01-31T03:37:54;3.95;;;1.92;;
24681;SDS011;12802;53.390;-2.328;2023-01-31T03:40:43;12.95;;;2.17;;
24681;SDS011;12802;53.390;-2.328;2023-01-31T03:46:12;6.63;;;1.63;;
24681;SDS011;12802;53.390;-2.328;2023-01-31T03:48:45;5.20;;;1.55;;
24681;SDS011;12802;53.390;-2.328;2023-01-31T03:53:45;5.03;;;1.92;;
24681;SDS011;12802;53.390;-2.328;2023-01-31T03:56:24;4.18;;;1.38;;
24681;SDS011;12802;53.390;-2.328;2023-01-31T03:58:52;4.85;;;1.30;;
24681;SDS011;12802;53.390;-2.328;2023-01-31T04:01:24;8.80;;;2.30;;
24681;SDS011;12802;53.390;-2.328;2023-01-31T04:03:56;5.00;;;1.52;;
24681;SDS011;12802;53.390;-2.328;2023-01-31T04:06:28;6.03;;;1.80;;
24681;SDS011;12802;53.390;-2.328;2023-01-31T04:08:54;9.93;;;2.17;;
24681;SDS011;12802;53.390;-2.328;2023-01-31T04:11:20;4.00;;;1.83;;
24681;SDS011;12802;53.390;-2.328;2023-01-31T04:13:50;4.38;;;1.55;;
24681;SDS011;12802;53.390;-2.328;2023-01-31T04:16:15;5.18;;;1.52;;
24681;SDS011;12802;53.390;-2.328;2023-01-31T04:18:41;5.30;;;1.08;;
24681;SDS011;12802;53.390;-2.328;2023-01-31T04:21:07;4.35;;;1.42;;
24681;SDS011;12802;53.390;-2.328;2023-01-31T04:23:34;6.60;;;1.55;;
24681;SDS011;12802;53.390;-2.328;2023-01-31T04:26:00;3.47;;;1.45;;
24681;SDS011;12802;53.390;-2.328;2023-01-31T04:28:26;4.32;;;1.48;;
24681;SDS011;12802;53.390;-2.328;2023-01-31T04:30:54;8.32;;;1.70;;
24681;SDS011;12802;53.390;-2.328;2023-01-31T04:33:21;2.17;;;1.42;;
24681;SDS011;12802;53.390;-2.328;2023-01-31T04:35:47;13.85;;;1.48;;
24681;SDS011;12802;53.390;-2.328;2023-01-31T04:38:15;5.00;;;1.23;;
24681;SDS011;12802;53.390;-2.328;2023-01-31T04:40:41;6.70;;;1.92;;
24681;SDS011;12802;53.390;-2.328;2023-01-31T04:43:07;6.45;;;1.60;;
24681;SDS011;12802;53.390;-2.328;2023-01-31T04:45:32;4.68;;;1.38;;
24681;SDS011;12802;53.390;-2.328;2023-01-31T04:47:58;5.47;;;1.90;;
24681;SDS011;12802;53.390;-2.328;2023-01-31T04:50:24;3.00;;;1.40;;
24681;SDS011;12802;53.390;-2.328;2023-01-31T04:52:50;2.92;;;1.38;;
24681;SDS011;12802;53.390;-2.328;2023-01-31T04:55:16;1.92;;;1.17;;
24681;SDS011;12802;53.390;-2.328;2023-01-31T04:57:42;6.32;;;1.38;;
24681;SDS011;12802;53.390;-2.328;2023-01-31T05:00:08;3.78;;;0.65;;
24681;SDS011;12802;53.390;-2.328;2023-01-31T05:02:34;1.17;;;0.70;;
24681;SDS011;12802;53.390;-2.328;2023-01-31T05:05:01;2.97;;;0.95;;
24681;SDS011;12802;53.390;-2.328;2023-01-31T05:07:27;3.80;;;0.95;;
24681;SDS011;12802;53.390;-2.328;2023-01-31T05:09:53;2.38;;;0.77;;
24681;SDS011;12802;53.390;-2.328;2023-01-31T05:12:19;1.42;;;0.73;;
24681;SDS011;12802;53.390;-2.328;2023-01-31T05:14:44;3.53;;;0.98;;
24681;SDS011;12802;53.390;-2.328;2023-01-31T05:17:10;1.20;;;0.60;;
24681;SDS011;12802;53.390;-2.328;2023-01-31T05:19:36;2.85;;;1.00;;
24681;SDS011;12802;53.390;-2.328;2023-01-31T05:22:02;1.73;;;0.70;;
24681;SDS011;12802;53.390;-2.328;2023-01-31T05:24:29;0.82;;;0.47;;
24681;SDS011;12802;53.390;-2.328;2023-01-31T05:26:57;2.45;;;0.93;;
24681;SDS011;12802;53.390;-2.328;2023-01-31T05:29:26;3.72;;;0.75;;
24681;SDS011;12802;53.390;-2.328;2023-01-31T05:31:53;4.05;;;0.80;;
24681;SDS011;12802;53.390;-2.328;2023-01-31T05:34:20;5.85;;;0.90;;
24681;SDS011;12802;53.390;-2.328;2023-01-31T05:36:46;0.75;;;0.45;;
24681;SDS011;12802;53.390;-2.328;2023-01-31T05:39:12;1.73;;;0.52;;
24681;SDS011;12802;53.390;-2.328;2023-01-31T05:41:38;2.05;;;0.60;;
24681;SDS011;12802;53.390;-2.328;2023-01-31T05:44:04;4.57;;;0.77;;
24681;SDS011;12802;53.390;-2.328;2023-01-31T05:46:30;2.38;;;0.75;;
24681;SDS011;12802;53.390;-2.328;2023-01-31T05:48:55;1.50;;;0.65;;
24681;SDS011;12802;53.390;-2.328;2023-01-31T05:51:22;2.35;;;0.70;;
24681;SDS011;12802;53.390;-2.328;2023-01-31T05:53:47;6.07;;;0.63;;
24681;SDS011;12802;53.390;-2.328;2023-01-31T05:56:13;4.97;;;0.70;;
24681;SDS011;12802;53.390;-2.328;2023-01-31T05:58:40;2.00;;;0.30;;
24681;SDS011;12802;53.390;-2.328;2023-01-31T06:01:07;1.05;;;0.50;;
24681;SDS011;12802;53.390;-2.328;2023-01-31T06:03:33;1.65;;;0.85;;
24681;SDS011;12802;53.390;-2.328;2023-01-31T06:05:59;1.33;;;0.60;;
24681;SDS011;12802;53.390;-2.328;2023-01-31T06:08:24;2.47;;;0.82;;
24681;SDS011;12802;53.390;-2.328;2023-01-31T06:10:50;3.33;;;0.65;;
24681;SDS011;12802;53.390;-2.328;2023-01-31T06:13:16;0.63;;;0.50;;
24681;SDS011;12802;53.390;-2.328;2023-01-31T06:15:45;10.05;;;1.00;;
24681;SDS011;12802;53.390;-2.328;2023-01-31T06:18:10;1.80;;;0.88;;
24681;SDS011;12802;53.390;-2.328;2023-01-31T06:20:37;6.45;;;0.80;;
24681;SDS011;12802;53.390;-2.328;2023-01-31T06:23:03;3.88;;;0.50;;
24681;SDS011;12802;53.390;-2.328;2023-01-31T06:25:29;1.63;;;0.70;;
24681;SDS011;12802;53.390;-2.328;2023-01-31T06:27:55;3.70;;;1.40;;
24681;SDS011;12802;53.390;-2.328;2023-01-31T06:30:21;7.32;;;0.55;;
24681;SDS011;12802;53.390;-2.328;2023-01-31T06:32:47;3.15;;;0.95;;
24681;SDS011;12802;53.390;-2.328;2023-01-31T06:35:13;3.20;;;0.88;;
24681;SDS011;12802;53.390;-2.328;2023-01-31T06:37:39;3.13;;;1.15;;
24681;SDS011;12802;53.390;-2.328;2023-01-31T06:40:05;1.60;;;0.93;;
24681;SDS011;12802;53.390;-2.328;2023-01-31T06:42:31;2.42;;;0.73;;
24681;SDS011;12802;53.390;-2.328;2023-01-31T06:44:56;2.35;;;0.70;;
24681;SDS011;12802;53.390;-2.328;2023-01-31T06:47:22;3.17;;;1.10;;
24681;SDS011;12802;53.390;-2.328;2023-01-31T06:49:48;1.20;;;0.70;;
24681;SDS011;12802;53.390;-2.328;2023-01-31T06:52:13;3.63;;;1.10;;
24681;SDS011;12802;53.390;-2.328;2023-01-31T06:54:39;1.05;;;0.55;;
24681;SDS011;12802;53.390;-2.328;2023-01-31T06:57:05;1.70;;;0.57;;
24681;SDS011;12802;53.390;-2.328;2023-01-31T06:59:31;1.88;;;0.55;;
24681;SDS011;12802;53.390;-2.328;2023-01-31T07:01:57;3.83;;;0.95;;
24681;SDS011;12802;53.390;-2.328;2023-01-31T07:04:23;2.28;;;0.63;;
24681;SDS011;12802;53.390;-2.328;2023-01-31T07:06:48;2.53;;;0.77;;
24681;SDS011;12802;53.390;-2.328;2023-01-31T07:09:14;8.73;;;1.10;;
24681;SDS011;12802;53.390;-2.328;2023-01-31T07:11:40;1.88;;;1.08;;
24681;SDS011;12802;53.390;-2.328;2023-01-31T07:14:06;3.90;;;1.08;;
24681;SDS011;12802;53.390;-2.328;2023-01-31T07:16:31;8.40;;;1.38;;
24681;SDS011;12802;53.390;-2.328;2023-01-31T07:18:57;2.47;;;1.00;;
24681;SDS011;12802;53.390;-2.328;2023-01-31T07:21:23;5.03;;;1.25;;
24681;SDS011;12802;53.390;-2.328;2023-01-31T07:23:50;2.00;;;0.95;;
24681;SDS011;12802;53.390;-2.328;2023-01-31T07:26:16;2.80;;;0.90;;
24681;SDS011;12802;53.390;-2.328;2023-01-31T07:28:42;10.43;;;1.05;;
24681;SDS011;12802;53.390;-2.328;2023-01-31T07:31:09;3.83;;;1.25;;
24681;SDS011;12802;53.390;-2.328;2023-01-31T07:33:36;10.73;;;1.90;;
24681;SDS011;12802;53.390;-2.328;2023-01-31T07:36:03;5.10;;;1.80;;
24681;SDS011;12802;53.390;-2.328;2023-01-31T07:38:30;6.70;;;2.08;;
24681;SDS011;12802;53.390;-2.328;2023-01-31T07:41:00;6.25;;;2.38;;
24681;SDS011;12802;53.390;-2.328;2023-01-31T07:43:27;8.20;;;2.67;;
24681;SDS011;12802;53.390;-2.328;2023-01-31T07:45:53;5.95;;;2.35;;
24681;SDS011;12802;53.390;-2.328;2023-01-31T07:48:19;10.88;;;2.40;;
24681;SDS011;12802;53.390;-2.328;2023-01-31T07:51:05;9.68;;;2.97;;
24681;SDS011;12802;53.390;-2.328;2023-01-31T07:53:33;9.05;;;3.05;;
24681;SDS011;12802;53.390;-2.328;2023-01-31T07:58:39;9.50;;;2.90;;
24681;SDS011;12802;53.390;-2.328;2023-01-31T08:01:06;11.38;;;2.85;;
24681;SDS011;12802;53.390;-2.328;2023-01-31T08:03:52;7.72;;;2.90;;
24681;SDS011;12802;53.390;-2.328;2023-01-31T08:06:18;4.00;;;2.15;;
24681;SDS011;12802;53.390;-2.328;2023-01-31T08:08:44;11.50;;;3.40;;
24681;SDS011;12802;53.390;-2.328;2023-01-31T08:11:10;9.38;;;3.00;;
24681;SDS011;12802;53.390;-2.328;2023-01-31T08:13:37;15.25;;;3.05;;
24681;SDS011;12802;53.390;-2.328;2023-01-31T08:16:03;11.25;;;3.95;;
24681;SDS011;12802;53.390;-2.328;2023-01-31T08:18:31;12.77;;;3.05;;
24681;SDS011;12802;53.390;-2.328;2023-01-31T08:20:57;10.43;;;3.50;;
24681;SDS011;12802;53.390;-2.328;2023-01-31T08:23:23;9.55;;;3.58;;
24681;SDS011;12802;53.390;-2.328;2023-01-31T08:25:50;16.83;;;4.05;;
24681;SDS011;12802;53.390;-2.328;2023-01-31T08:28:16;22.38;;;3.28;;
24681;SDS011;12802;53.390;-2.328;2023-01-31T08:30:42;9.40;;;3.65;;
24681;SDS011;12802;53.390;-2.328;2023-01-31T08:33:09;7.72;;;3.55;;
24681;SDS011;12802;53.390;-2.328;2023-01-31T08:35:36;23.40;;;4.13;;
24681;SDS011;12802;53.390;-2.328;2023-01-31T08:38:03;20.45;;;3.60;;
24681;SDS011;12802;53.390;-2.328;2023-01-31T08:40:29;12.30;;;3.55;;
24681;SDS011;12802;53.390;-2.328;2023-01-31T08:42:57;11.73;;;3.70;;
24681;SDS011;12802;53.390;-2.328;2023-01-31T08:45:27;10.77;;;3.20;;
24681;SDS011;12802;53.390;-2.328;2023-01-31T08:47:54;14.90;;;4.57;;
24681;SDS011;12802;53.390;-2.328;2023-01-31T08:50:26;21.17;;;4.20;;
24681;SDS011;12802;53.390;-2.328;2023-01-31T08:52:56;17.35;;;4.68;;
24681;SDS011;12802;53.390;-2.328;2023-01-31T08:55:28;12.55;;;3.80;;
24681;SDS011;12802;53.390;-2.328;2023-01-31T08:57:55;15.80;;;4.57;;
24681;SDS011;12802;53.390;-2.328;2023-01-31T09:00:21;12.30;;;4.20;;
24681;SDS011;12802;53.390;-2.328;2023-01-31T09:02:50;15.30;;;3.60;;
24681;SDS011;12802;53.390;-2.328;2023-01-31T09:05:17;15.13;;;4.15;;
24681;SDS011;12802;53.390;-2.328;2023-01-31T09:07:43;15.05;;;4.57;;
24681;SDS011;12802;53.390;-2.328;2023-01-31T09:10:09;14.52;;;5.03;;
24681;SDS011;12802;53.390;-2.328;2023-01-31T09:12:35;10.40;;;3.78;;
24681;SDS011;12802;53.390;-2.328;2023-01-31T09:15:01;23.20;;;4.70;;
24681;SDS011;12802;53.390;-2.328;2023-01-31T09:17:28;15.98;;;4.65;;
24681;SDS011;12802;53.390;-2.328;2023-01-31T09:19:54;10.50;;;3.92;;
24681;SDS011;12802;53.390;-2.328;2023-01-31T09:22:21;17.98;;;3.90;;
24681;SDS011;12802;53.390;-2.328;2023-01-31T09:24:47;18.95;;;4.18;;
24681;SDS011;12802;53.390;-2.328;2023-01-31T09:27:12;15.00;;;4.55;;
24681;SDS011;12802;53.390;-2.328;2023-01-31T09:29:38;15.57;;;4.93;;
24681;SDS011;12802;53.390;-2.328;2023-01-31T09:32:04;13.10;;;4.78;;
24681;SDS011;12802;53.390;-2.328;2023-01-31T09:34:31;23.70;;;5.47;;
24681;SDS011;12802;53.390;-2.328;2023-01-31T09:36:57;22.35;;;5.40;;
24681;SDS011;12802;53.390;-2.328;2023-01-31T09:39:23;26.92;;;5.05;;
24681;SDS011;12802;53.390;-2.328;2023-01-31T09:41:51;17.75;;;5.28;;
24681;SDS011;12802;53.390;-2.328;2023-01-31T09:44:25;24.55;;;5.28;;
24681;SDS011;12802;53.390;-2.328;2023-01-31T09:47:16;13.02;;;4.63;;
24681;SDS011;12802;53.390;-2.328;2023-01-31T09:50:00;28.50;;;6.35;;
24681;SDS011;12802;53.390;-2.328;2023-01-31T09:52:30;20.15;;;5.13;;
24681;SDS011;12802;53.390;-2.328;2023-01-31T09:54:56;13.65;;;4.22;;
24681;SDS011;12802;53.390;-2.328;2023-01-31T10:05:29;21.25;;;4.05;;
24681;SDS011;12802;53.390;-2.328;2023-01-31T10:10:51;12.60;;;3.40;;
24681;SDS011;12802;53.390;-2.328;2023-01-31T10:13:25;17.92;;;5.72;;
24681;SDS011;12802;53.390;-2.328;2023-01-31T10:16:05;12.73;;;4.28;;
24681;SDS011;12802;53.390;-2.328;2023-01-31T10:18:36;12.45;;;5.10;;
24681;SDS011;12802;53.390;-2.328;2023-01-31T10:21:10;28.52;;;4.95;;
24681;SDS011;12802;53.390;-2.328;2023-01-31T10:23:42;13.88;;;4.30;;
24681;SDS011;12802;53.390;-2.328;2023-01-31T10:26:28;20.00;;;5.28;;
24681;SDS011;12802;53.390;-2.328;2023-01-31T10:28:59;12.57;;;4.20;;
24681;SDS011;12802;53.390;-2.328;2023-01-31T10:31:52;25.52;;;5.05;;
24681;SDS011;12802;53.390;-2.328;2023-01-31T10:34:24;27.63;;;5.28;;
24681;SDS011;12802;53.390;-2.328;2023-01-31T10:36:57;21.80;;;5.60;;
24681;SDS011;12802;53.390;-2.328;2023-01-31T10:39:34;11.30;;;4.03;;
24681;SDS011;12802;53.390;-2.328;2023-01-31T10:50:16;18.38;;;4.43;;
24681;SDS011;12802;53.390;-2.328;2023-01-31T10:53:11;27.55;;;5.45;;
24681;SDS011;12802;53.390;-2.328;2023-01-31T10:58:12;11.75;;;4.57;;
24681;SDS011;12802;53.390;-2.328;2023-01-31T11:00:40;22.10;;;5.65;;
24681;SDS011;12802;53.390;-2.328;2023-01-31T11:03:08;12.63;;;4.55;;
24681;SDS011;12802;53.390;-2.328;2023-01-31T11:05:36;18.52;;;4.78;;
24681;SDS011;12802;53.390;-2.328;2023-01-31T11:10:50;16.48;;;5.72;;
24681;SDS011;12802;53.390;-2.328;2023-01-31T11:13:18;18.40;;;4.85;;
24681;SDS011;12802;53.390;-2.328;2023-01-31T11:15:44;21.42;;;5.53;;
24681;SDS011;12802;53.390;-2.328;2023-01-31T11:20:53;9.57;;;3.70;;
24681;SDS011;12802;53.390;-2.328;2023-01-31T11:23:24;21.52;;;4.85;;
24681;SDS011;12802;53.390;-2.328;2023-01-31T11:25:52;17.90;;;4.10;;
24681;SDS011;12802;53.390;-2.328;2023-01-31T11:30:51;19.00;;;4.45;;
24681;SDS011;12802;53.390;-2.328;2023-01-31T11:36:15;23.85;;;4.45;;
24681;SDS011;12802;53.390;-2.328;2023-01-31T11:38:47;11.65;;;4.32;;
24681;SDS011;12802;53.390;-2.328;2023-01-31T11:41:34;17.25;;;5.40;;
24681;SDS011;12802;53.390;-2.328;2023-01-31T11:44:18;10.43;;;4.07;;
24681;SDS011;12802;53.390;-2.328;2023-01-31T11:49:21;23.02;;;5.25;;
24681;SDS011;12802;53.390;-2.328;2023-01-31T11:51:52;13.90;;;4.78;;
24681;SDS011;12802;53.390;-2.328;2023-01-31T11:54:20;23.55;;;4.63;;
24681;SDS011;12802;53.390;-2.328;2023-01-31T11:56:52;16.58;;;4.30;;
24681;SDS011;12802;53.390;-2.328;2023-01-31T11:59:19;28.00;;;6.18;;
24681;SDS011;12802;53.390;-2.328;2023-01-31T12:01:52;18.92;;;5.43;;
24681;SDS011;12802;53.390;-2.328;2023-01-31T12:04:21;18.00;;;5.55;;
24681;SDS011;12802;53.390;-2.328;2023-01-31T12:09:22;24.73;;;5.28;;
24681;SDS011;12802;53.390;-2.328;2023-01-31T12:11:51;19.75;;;5.35;;
24681;SDS011;12802;53.390;-2.328;2023-01-31T12:14:18;16.85;;;5.18;;
24681;SDS011;12802;53.390;-2.328;2023-01-31T12:16:45;25.45;;;5.70;;
24681;SDS011;12802;53.390;-2.328;2023-01-31T12:27:03;18.77;;;4.97;;
24681;SDS011;12802;53.390;-2.328;2023-01-31T12:32:45;10.60;;;2.67;;
24681;SDS011;12802;53.390;-2.328;2023-01-31T12:38:06;7.50;;;2.10;;
24681;SDS011;12802;53.390;-2.328;2023-01-31T12:46:59;12.73;;;3.40;;
24681;SDS011;12802;53.390;-2.328;2023-01-31T12:57:46;20.15;;;4.68;;
24681;SDS011;12802;53.390;-2.328;2023-01-31T13:00:26;20.85;;;4.15;;
24681;SDS011;12802;53.390;-2.328;2023-01-31T13:05:55;19.95;;;5.53;;
24681;SDS011;12802;53.390;-2.328;2023-01-31T13:08:29;18.10;;;4.88;;
24681;SDS011;12802;53.390;-2.328;2023-01-31T13:11:08;13.98;;;4.97;;
24681;SDS011;12802;53.390;-2.328;2023-01-31T13:13:48;12.20;;;3.88;;
24681;SDS011;12802;53.390;-2.328;2023-01-31T13:16:25;24.20;;;5.55;;
24681;SDS011;12802;53.390;-2.328;2023-01-31T13:18:57;19.10;;;4.72;;
24681;SDS011;12802;53.390;-2.328;2023-01-31T13:21:28;20.70;;;4.18;;
24681;SDS011;12802;53.390;-2.328;2023-01-31T13:24:02;11.55;;;4.28;;
24681;SDS011;12802;53.390;-2.328;2023-01-31T13:26:32;15.82;;;4.72;;
24681;SDS011;12802;53.390;-2.328;2023-01-31T13:29:03;13.43;;;4.78;;
24681;SDS011;12802;53.390;-2.328;2023-01-31T13:31:35;12.02;;;3.78;;
24681;SDS011;12802;53.390;-2.328;2023-01-31T13:34:18;19.45;;;4.85;;
24681;SDS011;12802;53.390;-2.328;2023-01-31T13:36:57;14.10;;;4.72;;
24681;SDS011;12802;53.390;-2.328;2023-01-31T13:39:31;17.25;;;4.63;;
24681;SDS011;12802;53.390;-2.328;2023-01-31T13:42:01;22.25;;;5.47;;
24681;SDS011;12802;53.390;-2.328;2023-01-31T13:44:27;25.08;;;4.55;;
24681;SDS011;12802;53.390;-2.328;2023-01-31T13:46:57;21.05;;;4.38;;
24681;SDS011;12802;53.390;-2.328;2023-01-31T13:50:06;16.83;;;3.97;;
24681;SDS011;12802;53.390;-2.328;2023-01-31T13:52:20;22.75;;;5.57;;
24681;SDS011;12802;53.390;-2.328;2023-01-31T13:54:53;21.80;;;4.38;;
24681;SDS011;12802;53.390;-2.328;2023-01-31T13:57:28;16.65;;;4.93;;
24681;SDS011;12802;53.390;-2.328;2023-01-31T14:00:05;13.95;;;4.55;;
24681;SDS011;12802;53.390;-2.328;2023-01-31T14:11:45;16.45;;;5.05;;
24681;SDS011;12802;53.390;-2.328;2023-01-31T14:13:49;20.02;;;5.32;;
24681;SDS011;12802;53.390;-2.328;2023-01-31T14:27:20;15.45;;;5.35;;
24681;SDS011;12802;53.390;-2.328;2023-01-31T14:32:33;11.40;;;4.43;;
24681;SDS011;12802;53.390;-2.328;2023-01-31T14:37:45;20.48;;;5.18;;
24681;SDS011;12802;53.390;-2.328;2023-01-31T14:45:33;19.58;;;4.95;;
24681;SDS011;12802;53.390;-2.328;2023-01-31T14:48:03;20.10;;;5.05;;
24681;SDS011;12802;53.390;-2.328;2023-01-31T14:58:45;19.70;;;5.30;;
24681;SDS011;12802;53.390;-2.328;2023-01-31T15:03:47;17.10;;;4.85;;
24681;SDS011;12802;53.390;-2.328;2023-01-31T15:06:26;25.83;;;5.85;;
24681;SDS011;12802;53.390;-2.328;2023-01-31T15:11:46;24.48;;;4.68;;
24681;SDS011;12802;53.390;-2.328;2023-01-31T15:17:00;21.55;;;6.13;;
24681;SDS011;12802;53.390;-2.328;2023-01-31T15:19:40;13.52;;;4.13;;
24681;SDS011;12802;53.390;-2.328;2023-01-31T15:22:10;18.27;;;4.60;;
24681;SDS011;12802;53.390;-2.328;2023-01-31T15:24:38;16.27;;;4.63;;
24681;SDS011;12802;53.390;-2.328;2023-01-31T15:27:22;22.02;;;4.82;;
24681;SDS011;12802;53.390;-2.328;2023-01-31T15:29:55;18.13;;;4.35;;
24681;SDS011;12802;53.390;-2.328;2023-01-31T15:32:34;14.25;;;4.72;;
24681;SDS011;12802;53.390;-2.328;2023-01-31T15:41:06;14.80;;;4.70;;
24681;SDS011;12802;53.390;-2.328;2023-01-31T15:43:42;21.65;;;4.82;;
24681;SDS011;12802;53.390;-2.328;2023-01-31T15:46:21;25.95;;;5.00;;
24681;SDS011;12802;53.390;-2.328;2023-01-31T15:48:47;23.17;;;5.35;;
24681;SDS011;12802;53.390;-2.328;2023-01-31T15:51:14;18.35;;;4.57;;
24681;SDS011;12802;53.390;-2.328;2023-01-31T15:53:40;16.83;;;5.03;;
24681;SDS011;12802;53.390;-2.328;2023-01-31T15:56:12;18.48;;;5.03;;
24681;SDS011;12802;53.390;-2.328;2023-01-31T15:58:46;18.13;;;4.13;;
24681;SDS011;12802;53.390;-2.328;2023-01-31T16:01:16;12.88;;;4.22;;
24681;SDS011;12802;53.390;-2.328;2023-01-31T16:03:58;18.45;;;4.53;;
24681;SDS011;12802;53.390;-2.328;2023-01-31T16:06:35;11.32;;;4.03;;
24681;SDS011;12802;53.390;-2.328;2023-01-31T16:09:04;15.60;;;4.40;;
24681;SDS011;12802;53.390;-2.328;2023-01-31T16:11:32;17.08;;;3.97;;
24681;SDS011;12802;53.390;-2.328;2023-01-31T16:14:04;13.63;;;4.82;;
24681;SDS011;12802;53.390;-2.328;2023-01-31T16:16:34;22.52;;;4.82;;
24681;SDS011;12802;53.390;-2.328;2023-01-31T16:19:01;17.15;;;4.20;;
24681;SDS011;12802;53.390;-2.328;2023-01-31T16:21:38;15.38;;;4.22;;
24681;SDS011;12802;53.390;-2.328;2023-01-31T16:26:39;23.77;;;4.57;;
24681;SDS011;12802;53.390;-2.328;2023-01-31T16:29:16;18.88;;;4.75;;
24681;SDS011;12802;53.390;-2.328;2023-01-31T16:34:19;18.88;;;4.28;;
24681;SDS011;12802;53.390;-2.328;2023-01-31T16:39:27;21.27;;;4.38;;
24681;SDS011;12802;53.390;-2.328;2023-01-31T16:41:57;20.95;;;4.20;;
24681;SDS011;12802;53.390;-2.328;2023-01-31T16:44:26;24.00;;;5.15;;
24681;SDS011;12802;53.390;-2.328;2023-01-31T16:46:57;17.90;;;5.13;;
24681;SDS011;12802;53.390;-2.328;2023-01-31T16:49:24;24.05;;;4.43;;
24681;SDS011;12802;53.390;-2.328;2023-01-31T16:51:55;13.17;;;4.00;;
24681;SDS011;12802;53.390;-2.328;2023-01-31T16:54:42;13.30;;;3.75;;
24681;SDS011;12802;53.390;-2.328;2023-01-31T16:57:23;20.15;;;5.53;;
24681;SDS011;12802;53.390;-2.328;2023-01-31T17:00:01;9.88;;;3.90;;
24681;SDS011;12802;53.390;-2.328;2023-01-31T17:02:32;17.75;;;3.92;;
24681;SDS011;12802;53.390;-2.328;2023-01-31T17:05:46;18.15;;;4.00;;
24681;SDS011;12802;53.390;-2.328;2023-01-31T17:07:55;15.63;;;3.60;;
24681;SDS011;12802;53.390;-2.328;2023-01-31T17:10:23;12.48;;;3.88;;
24681;SDS011;12802;53.390;-2.328;2023-01-31T17:13:01;9.63;;;3.97;;
24681;SDS011;12802;53.390;-2.328;2023-01-31T17:15:30;14.50;;;4.05;;
24681;SDS011;12802;53.390;-2.328;2023-01-31T17:17:56;13.60;;;4.60;;
24681;SDS011;12802;53.390;-2.328;2023-01-31T17:20:22;22.98;;;4.30;;
24681;SDS011;12802;53.390;-2.328;2023-01-31T17:22:48;15.80;;;4.97;;
24681;SDS011;12802;53.390;-2.328;2023-01-31T17:25:18;16.55;;;4.53;;
24681;SDS011;12802;53.390;-2.328;2023-01-31T17:27:49;21.83;;;5.18;;
24681;SDS011;12802;53.390;-2.328;2023-01-31T17:30:15;12.57;;;4.38;;
24681;SDS011;12802;53.390;-2.328;2023-01-31T17:32:43;21.95;;;4.07;;
24681;SDS011;12802;53.390;-2.328;2023-01-31T17:35:19;17.13;;;4.65;;
24681;SDS011;12802;53.390;-2.328;2023-01-31T17:37:48;19.02;;;4.45;;
24681;SDS011;12802;53.390;-2.328;2023-01-31T17:40:14;14.55;;;4.80;;
24681;SDS011;12802;53.390;-2.328;2023-01-31T17:42:40;13.10;;;4.40;;
24681;SDS011;12802;53.390;-2.328;2023-01-31T17:45:09;16.00;;;4.95;;
24681;SDS011;12802;53.390;-2.328;2023-01-31T17:47:38;17.98;;;4.57;;